createdAt,value
2023-01-07T00:02:21.522Z,101971.91
2023-01-07T00:07:26.872Z,101961.31
2023-01-07T00:12:31.185Z,101952.81
2023-01-07T00:17:34.831Z,101947.53
2023-01-07T00:22:40.562Z,101942.22
2023-01-07T00:27:44.184Z,101948.41
2023-01-07T00:32:47.833Z,101951.34
2023-01-07T00:37:53.769Z,101933.72
2023-01-07T00:42:57.381Z,101921.56
2023-01-07T00:48:01.788Z,101931.34
2023-01-07T00:53:07.693Z,101928.00
2023-01-07T00:58:15.115Z,101940.22
2023-01-07T01:03:18.802Z,101938.28
2023-01-07T01:08:25.055Z,101920.81
2023-01-07T01:13:28.692Z,101905.22
2023-01-07T01:18:32.301Z,101909.56
2023-01-07T01:23:37.717Z,101897.66
2023-01-07T01:28:41.366Z,101901.25
2023-01-07T01:33:45.024Z,101895.16
2023-01-07T01:38:50.333Z,101894.38
2023-01-07T01:43:54.008Z,101898.69
2023-01-07T01:49:00.533Z,101901.16
2023-01-07T01:54:09.256Z,101904.84
2023-01-07T01:59:18.467Z,101912.88
2023-01-07T02:04:23.967Z,101903.28
2023-01-07T02:09:29.233Z,101913.06
2023-01-07T02:14:47.119Z,101914.91
2023-01-07T02:20:20.755Z,101894.59
2023-01-07T02:26:02.281Z,101894.25
2023-01-07T02:31:26.034Z,101886.47
2023-01-07T02:36:47.082Z,101879.75
2023-01-07T02:41:58.375Z,101875.13
2023-01-07T02:47:07.813Z,101875.16
2023-01-07T02:52:22.187Z,101871.88
2023-01-07T02:57:50.159Z,101863.94
2023-01-07T03:03:19.851Z,101869.91
2023-01-07T03:08:38.842Z,101864.91
2023-01-07T03:13:47.226Z,101867.69
2023-01-07T03:18:56.617Z,101863.44
2023-01-07T03:24:02.861Z,101862.66
2023-01-07T03:29:09.100Z,101850.34
2023-01-07T03:34:17.366Z,101859.22
2023-01-07T03:39:25.469Z,101856.63
2023-01-07T03:44:29.297Z,101853.16
2023-01-07T03:49:34.867Z,101847.03
2023-01-07T03:54:40.173Z,101847.22
2023-01-07T03:59:43.856Z,101844.50
2023-01-07T04:04:48.276Z,101846.94
2023-01-07T04:09:53.629Z,101842.44
2023-01-07T04:14:59.171Z,101832.81
2023-01-07T04:20:02.984Z,101832.72
2023-01-07T04:25:09.765Z,101831.22
2023-01-07T04:30:13.883Z,101824.28
2023-01-07T04:35:17.646Z,101817.47
2023-01-07T04:40:22.915Z,101817.59
2023-01-07T04:45:26.573Z,101828.97
2023-01-07T04:50:30.232Z,101813.34
2023-01-07T04:55:35.551Z,101812.47
2023-01-07T05:00:39.217Z,101802.78
2023-01-07T05:05:42.826Z,101796.69
2023-01-07T05:10:50.076Z,101806.34
2023-01-07T05:15:53.727Z,101786.19
2023-01-07T05:20:57.400Z,101780.97
2023-01-07T05:26:02.704Z,101774.00
2023-01-07T05:31:06.605Z,101777.44
2023-01-07T05:36:10.403Z,101772.22
2023-01-07T05:41:15.697Z,101768.56
2023-01-07T05:46:19.689Z,101764.84
2023-01-07T05:51:23.326Z,101764.69
2023-01-07T05:56:28.621Z,101774.53
2023-01-07T06:01:32.422Z,101760.28
2023-01-07T06:06:36.206Z,101747.25
2023-01-07T06:11:41.510Z,101760.31
2023-01-07T06:16:45.179Z,101769.03
2023-01-07T06:21:48.839Z,101769.91
2023-01-07T06:26:54.109Z,101753.31
2023-01-07T06:31:57.724Z,101734.31
2023-01-07T06:37:01.553Z,101737.72
2023-01-07T06:42:07.014Z,101735.97
2023-01-07T06:47:10.638Z,101736.84
2023-01-07T06:52:14.278Z,101730.88
2023-01-07T06:57:19.631Z,101728.25
2023-01-07T07:02:25.389Z,101718.69
2023-01-07T07:07:29.076Z,101723.06
2023-01-07T07:12:35.512Z,101729.25
2023-01-07T07:17:39.152Z,101734.50
2023-01-07T07:22:47.173Z,101718.78
2023-01-07T07:27:52.443Z,101715.38
2023-01-07T07:32:56.088Z,101705.72
2023-01-07T07:37:59.698Z,101678.69
2023-01-07T07:43:10.169Z,101677.03
2023-01-07T07:48:17.176Z,101660.47
2023-01-07T07:53:21.077Z,101668.34
2023-01-07T07:58:26.363Z,101664.84
2023-01-07T08:03:30.022Z,101662.28
2023-01-07T08:08:33.963Z,101662.41
2023-01-07T08:13:39.283Z,101653.66
2023-01-07T08:18:43.637Z,101647.63
2023-01-07T08:23:47.261Z,101651.06
2023-01-07T08:28:52.708Z,101643.09
2023-01-07T08:33:56.345Z,101640.28
2023-01-07T08:38:59.988Z,101628.94
2023-01-07T08:44:05.564Z,101626.34
2023-01-07T08:49:10.029Z,101619.56
2023-01-07T08:54:13.694Z,101618.81
2023-01-07T08:59:19.048Z,101611.84
2023-01-07T09:04:22.694Z,101620.75
2023-01-07T09:09:26.348Z,101601.41
2023-01-07T09:14:31.992Z,101584.81
2023-01-07T09:19:35.668Z,101596.78
2023-01-07T09:24:39.271Z,101590.56
2023-01-07T09:29:44.558Z,101603.91
2023-01-07T09:34:48.301Z,101592.69
2023-01-07T09:39:51.932Z,101598.81
2023-01-07T09:45:08.963Z,101590.09
2023-01-07T09:50:23.247Z,101582.25
2023-01-07T09:55:33.077Z,101591.03
2023-01-07T10:00:43.427Z,101585.00
2023-01-07T10:06:05.236Z,101579.72
2023-01-07T10:11:22.033Z,101581.34
2023-01-07T10:16:36.449Z,101580.53
2023-01-07T10:21:43.891Z,101591.88
2023-01-07T10:26:52.127Z,101581.50
2023-01-07T10:31:59.274Z,101579.78
2023-01-07T10:37:05.489Z,101593.06
2023-01-07T10:42:12.491Z,101568.50
2023-01-07T10:47:22.371Z,101574.84
2023-01-07T10:52:38.585Z,101579.31
2023-01-07T10:57:42.636Z,101580.22
2023-01-07T11:02:51.660Z,101558.31
2023-01-07T11:08:00.313Z,101552.47
2023-01-07T11:13:07.854Z,101525.28
2023-01-07T11:18:24.339Z,101506.81
2023-01-07T11:23:37.892Z,101503.75
2023-01-07T11:28:49.301Z,101506.28
2023-01-07T11:34:03.816Z,101503.50
2023-01-07T11:39:11.216Z,101498.38
2023-01-07T11:44:17.027Z,101483.44
2023-01-07T11:49:32.106Z,101479.97
2023-01-07T11:54:35.747Z,101473.88
2023-01-07T11:59:39.468Z,101469.47
2023-01-07T12:04:44.783Z,101456.31
2023-01-07T12:09:48.492Z,101443.41
2023-01-07T12:14:52.197Z,101449.63
2023-01-07T12:20:27.989Z,101446.19
2023-01-07T12:25:40.902Z,101422.66
2023-01-07T12:31:08.094Z,101420.00
2023-01-07T12:36:20.960Z,101424.22
2023-01-07T12:41:28.807Z,101404.16
2023-01-07T12:46:39.653Z,101424.38
2023-01-07T12:51:49.795Z,101431.31
2023-01-07T12:56:59.004Z,101441.97
2023-01-07T13:02:16.841Z,101413.91
2023-01-07T13:07:29.474Z,101427.19
2023-01-07T13:12:41.106Z,101416.69
2023-01-07T13:17:46.307Z,101420.31
2023-01-07T13:22:55.919Z,101420.88
2023-01-07T13:28:28.078Z,101407.16
2023-01-07T13:33:43.628Z,101420.31
2023-01-07T13:39:13.814Z,101407.47
2023-01-07T13:44:35.277Z,101399.63
2023-01-07T13:49:39.281Z,101395.41
2023-01-07T13:55:37.971Z,101392.91
2023-01-07T14:00:58.437Z,101387.00
2023-01-07T14:06:43.031Z,101397.38
2023-01-07T14:12:08.883Z,101393.22
2023-01-07T14:17:23.706Z,101395.88
2023-01-07T14:22:40.794Z,101400.25
2023-01-07T14:28:13.769Z,101395.91
2023-01-07T14:33:21.970Z,101395.88
2023-01-07T14:39:07.356Z,101386.44
2023-01-07T14:44:30.786Z,101388.16
2023-01-07T14:49:53.361Z,101385.63
2023-01-07T14:55:29.279Z,101387.41
2023-01-07T15:01:07.064Z,101394.31
2023-01-07T15:06:22.501Z,101387.22
2023-01-07T15:11:26.988Z,101372.53
2023-01-07T15:16:36.310Z,101375.97
2023-01-07T15:21:52.006Z,101382.94
2023-01-07T15:27:02.901Z,101401.88
2023-01-07T15:32:19.474Z,101388.00
2023-01-07T15:37:23.232Z,101384.59
2023-01-07T15:42:28.435Z,101376.69
2023-01-07T15:47:38.877Z,101365.38
2023-01-07T15:52:48.542Z,101375.59
2023-01-07T15:57:57.456Z,101384.97
2023-01-07T16:03:04.026Z,101399.22
2023-01-07T16:08:16.047Z,101390.06
2023-01-07T16:13:19.686Z,101391.69
2023-01-07T16:18:25.219Z,101413.47
2023-01-07T16:23:30.164Z,101397.66
2023-01-07T16:28:38.906Z,101382.72
2023-01-07T16:33:44.897Z,101359.19
2023-01-07T16:38:52.404Z,101347.59
2023-01-07T16:43:56.733Z,101335.25
2023-01-07T16:49:29.937Z,101322.91
2023-01-07T16:54:36.333Z,101364.38
2023-01-07T16:59:43.696Z,101392.38
2023-01-07T17:04:49.204Z,101366.97
2023-01-07T17:09:54.553Z,101379.72
2023-01-07T17:14:58.267Z,101367.34
2023-01-07T17:20:15.829Z,101359.06
2023-01-07T17:25:24.668Z,101369.38
2023-01-07T17:30:32.810Z,101370.09
2023-01-07T17:35:45.425Z,101385.69
2023-01-07T17:40:49.473Z,101373.25
2023-01-07T17:45:53.128Z,101390.63
2023-01-07T17:50:59.103Z,101390.47
2023-01-07T17:56:02.983Z,101382.56
2023-01-07T18:01:08.964Z,101389.06
2023-01-07T18:06:18.061Z,101409.91
2023-01-07T18:11:22.919Z,101403.59
2023-01-07T18:16:26.655Z,101414.25
2023-01-07T18:21:34.506Z,101410.03
2023-01-07T18:26:38.123Z,101402.91
2023-01-07T18:31:43.417Z,101398.66
2023-01-07T18:36:51.372Z,101391.41
2023-01-07T18:41:55.210Z,101392.16
2023-01-07T18:46:58.881Z,101382.78
2023-01-07T18:52:04.176Z,101377.88
2023-01-07T18:57:07.951Z,101364.00
2023-01-07T19:02:16.541Z,101370.28
2023-01-07T19:07:21.872Z,101368.78
2023-01-07T19:12:25.478Z,101367.94
2023-01-07T19:17:29.176Z,101366.28
2023-01-07T19:22:34.486Z,101361.09
2023-01-07T19:27:38.118Z,101325.50
2023-01-07T19:32:41.787Z,101349.94
2023-01-07T19:37:47.126Z,101374.19
2023-01-07T19:42:50.800Z,101345.25
2023-01-07T19:47:54.459Z,101318.50
2023-01-07T19:53:00.149Z,101274.88
2023-01-07T19:58:03.789Z,101261.91
2023-01-07T20:03:07.490Z,101226.28
2023-01-07T20:08:12.873Z,101242.84
2023-01-07T20:13:16.525Z,101243.94
2023-01-07T20:18:20.158Z,101234.41
2023-01-07T20:23:26.730Z,101242.34
2023-01-07T20:28:30.693Z,101247.34
2023-01-07T20:33:35.087Z,101246.38
2023-01-07T20:38:40.729Z,101231.72
2023-01-07T20:43:44.941Z,101225.66
2023-01-07T20:48:48.800Z,101210.00
2023-01-07T20:53:54.332Z,101190.06
2023-01-07T20:58:58.433Z,101198.00
2023-01-07T21:04:02.070Z,101188.41
2023-01-07T21:09:08.170Z,101161.53
2023-01-07T21:14:11.774Z,101140.72
2023-01-07T21:19:15.760Z,101152.97
2023-01-07T21:24:21.134Z,101137.50
2023-01-07T21:29:24.777Z,101113.88
2023-01-07T21:34:28.426Z,101091.97
2023-01-07T21:39:33.775Z,101067.63
2023-01-07T21:44:38.157Z,101059.63
2023-01-07T21:49:42.009Z,101032.09
2023-01-07T21:54:48.031Z,101023.94
2023-01-07T21:59:51.643Z,101003.66
2023-01-07T22:04:55.255Z,101001.72
2023-01-07T22:10:00.544Z,100996.84
2023-01-07T22:15:04.312Z,100985.75
2023-01-07T22:20:09.294Z,100974.53
2023-01-07T22:25:14.589Z,100963.66
2023-01-07T22:30:20.459Z,100952.16
2023-01-07T22:35:24.611Z,100966.56
2023-01-07T22:40:33.225Z,100951.06
2023-01-07T22:45:43.135Z,100949.56
2023-01-07T22:50:46.799Z,100954.13
2023-01-07T22:55:52.210Z,100944.47
2023-01-07T23:01:10.939Z,100940.31
2023-01-07T23:06:15.960Z,100950.34
2023-01-07T23:11:21.292Z,100949.53
2023-01-07T23:16:24.963Z,100955.81
2023-01-07T23:21:28.650Z,100960.94
2023-01-07T23:26:34.916Z,100951.44
2023-01-07T23:31:38.710Z,100979.38
2023-01-07T23:36:42.403Z,100982.84
2023-01-07T23:41:47.748Z,100969.06
2023-01-07T23:46:51.770Z,100983.09
2023-01-07T23:51:55.391Z,100980.44
2023-01-07T23:57:00.722Z,100974.19
